Date,TemperatureHighF,TemperatureAvgF,TemperatureLowF,DewpointHighF,DewpointAvgF,DewpointLowF,HumidityHigh,HumidityAvg,HumidityLow,PressureMaxIn,PressureMinIn,WindSpeedMaxMPH,WindSpeedAvgMPH,GustSpeedMaxMPH,PrecipitationSumIn
2012-12-1,63,48,36,48,39,30,83,71,54,30.39,30.30,4,0,4,0.00
2012-12-2,66,52,40,53,44,35,88,76,58,30.38,30.23,6,0,6,0.00
2012-12-3,72,62,55,58,53,49,87,74,59,30.28,30.19,4,0,4,0.00
2012-12-4,69,56,48,58,49,43,88,80,67,30.30,30.19,5,0,5,0.00
2012-12-6,46,46,45,36,35,35,68,67,65,30.23,30.20,3,1,3,0.00
2012-12-7,57,51,45,49,43,35,86,75,68,30.20,29.98,4,1,4,0.00
2012-12-8,64,56,52,56,51,48,89,82,73,30.04,29.94,4,0,4,0.13
2012-12-9,70,61,53,62,56,48,90,84,75,30.12,29.98,5,0,5,0.02
2012-12-10,71,66,62,63,60,58,91,82,68,29.98,29.67,10,1,10,0.00
2012-12-11,65,59,52,59,47,39,84,65,49,30.13,29.71,6,2,6,0.00
2012-12-12,52,51,50,40,39,38,67,65,63,30.16,30.12,5,2,5,0.00
2012-12-19,63,55,45,42,40,37,74,57,43,30.11,29.95,5,1,5,0.00
2012-12-20,62,50,41,60,44,35,93,78,69,30.15,29.42,10,2,10,0.58
2012-12-21,62,46,39,59,31,23,90,57,46,29.78,29.45,12,4,12,0.00
2012-12-22,50,41,35,27,24,22,66,51,38,30.07,29.77,8,2,8,0.00
2012-12-23,54,42,30,32,27,23,76,58,37,30.13,30.00,5,0,5,0.00
2012-12-24,53,49,44,46,39,32,80,68,55,30.03,29.88,6,1,6,0.00
2012-12-25,60,53,47,46,44,40,83,71,52,30.09,29.90,8,1,8,0.00
2012-12-26,50,46,41,48,42,37,94,87,71,30.06,29.41,10,2,10,1.31
2012-12-27,49,42,36,38,33,26,87,69,56,30.05,29.60,9,2,9,0.00
2012-12-28,46,39,31,33,29,24,78,67,56,30.18,29.98,4,0,4,0.00
2012-12-29,51,44,39,44,36,28,89,74,56,29.99,29.62,10,2,10,0.03
2012-12-30,46,40,33,28,24,21,70,55,41,30.37,29.91,10,2,10,0.00
2012-12-31,53,41,28,30,27,22,79,59,38,30.35,30.08,8,1,8,0.00